Imperial, CA

10:47 PM PST on February 08, 2016 (GMT -0800)
Imperial County | | Change Station
CLOSE
Current Station
Airport
Location: Imperial,
Elevation: -56 ft
Nearby Weather Stations

Elev -56 ft 32.83 °N, 115.58 °W | Updated 54 minutes ago

Clear
Clear
55 °F
Feels Like 55 °F
N
7
Wind Variable Wind from WSW

Today
High -- | Low -- °F
--% Chance of Precip.
Yesterday
High -- | Low -- °F
Precip. -- in
Pressure 30.15 in
Visibility 10.0 miles
Clouds Clear
Dew Point 27 °F
Humidity 34%
Rainfall 0.00 in
Snow Depth Not available.
6:32 AM 5:21 PM
New Moon, 1% visible
METAR KIPL 090553Z AUTO 25006KT 10SM CLR 13/M03 A3015 RMK AO2 SLP208 T01281028 10278 20128 51009
Pressure 30.15 in
Visibility 10.0 miles
Clouds Clear
Dew Point 27 °F
Humidity 34%
Rainfall 0.00 in
Snow Depth Not available.
6:32 AM 5:21 PM
New Moon, 1% visible
METAR KIPL 090553Z AUTO 25006KT 10SM CLR 13/M03 A3015 RMK AO2 SLP208 T01281028 10278 20128 51009

10-Day Weather Forecast

Almanac

Astronomy

Feb. 08, 2016 Rise Set
Actual Time
Civil Twilight
Nautical Twilight
Astronomical Twilight
Moon
Length of Visible Light
Length of Day
Tomorrow will be .
, % of the Moon is Illuminated

Today's Extremes

State Highs State Lows

Community

WunderPhotos

Upload Photos

1,891,571 photos uploaded!

WunderBlog® & News

Nearby

Air Quality

  Air Quality AQ Index Pollutant
Not available.

Snow Depth

Station Depth Elevation

Earthquake Activity

City Distance Mag. Time & Date
Minimum magnitude displayed is 2.5.

Coastal Water Temperatures

Place Temperature

Stations

Nearby Weather Stations

Station Location Temp. Windchill Dew Point Humidity Wind Precip. Elev Updated Type
                   

Watches & Warnings

There are currently no watches in effect.